createdAt,value
2019-04-06T00:00:59.306Z,94969.08
2019-04-06T00:03:32.296Z,94964.50
2019-04-06T00:06:04.422Z,94964.50
2019-04-06T00:08:35.136Z,94967.89
2019-04-06T00:11:06.583Z,94972.61
2019-04-06T00:13:37.365Z,94969.66
2019-04-06T00:16:08.119Z,94970.70
2019-04-06T00:18:40.521Z,94963.81
2019-04-06T00:21:12.025Z,94961.41
2019-04-06T00:23:42.857Z,94969.38
2019-04-06T00:26:13.632Z,94971.94
2019-04-06T00:28:44.389Z,94976.09
2019-04-06T00:31:34.823Z,94972.92
2019-04-06T00:34:05.784Z,94966.45
2019-04-06T00:36:37.086Z,94975.75
2019-04-06T00:39:07.971Z,94976.27
2019-04-06T00:41:38.678Z,94982.58
2019-04-06T00:44:12.568Z,94979.86
2019-04-06T00:46:43.690Z,94985.95
2019-04-06T00:49:14.548Z,94987.24
2019-04-06T00:51:45.740Z,94983.03
2019-04-06T00:54:19.489Z,94981.16
2019-04-06T00:56:50.238Z,94982.44
2019-04-06T00:59:21.016Z,94982.51
2019-04-06T01:01:52.308Z,94982.23
2019-04-06T01:04:24.258Z,94978.99
2019-04-06T01:06:55.064Z,94982.41
2019-04-06T01:09:25.795Z,94980.24
2019-04-06T01:11:56.992Z,94983.13
2019-04-06T01:14:27.799Z,94988.03
2019-04-06T01:16:58.978Z,94980.09
2019-04-06T01:19:29.693Z,94980.93
2019-04-06T01:22:00.458Z,94985.21
2019-04-06T01:24:31.230Z,94983.61
2019-04-06T01:27:02.196Z,94981.20
2019-04-06T01:29:34.000Z,94978.80
2019-04-06T01:32:04.929Z,94983.30
2019-04-06T01:34:35.722Z,94984.85
2019-04-06T01:37:06.405Z,94988.55
2019-04-06T01:39:37.890Z,94991.47
2019-04-06T01:42:08.901Z,94994.11
2019-04-06T01:44:40.173Z,94993.52
2019-04-06T01:47:10.952Z,94993.27
2019-04-06T01:49:42.058Z,94988.98
2019-04-06T01:52:12.887Z,94987.74
2019-04-06T01:54:43.736Z,94994.80
2019-04-06T01:57:15.778Z,94989.23
2019-04-06T01:59:46.455Z,94992.16
2019-04-06T02:02:27.248Z,94982.78
2019-04-06T02:04:58.060Z,94989.91
2019-04-06T02:07:28.790Z,94988.78
2019-04-06T02:09:59.605Z,94987.70
2019-04-06T02:12:30.720Z,94993.55
2019-04-06T02:15:01.477Z,94987.42
2019-04-06T02:17:33.385Z,94990.71
2019-04-06T02:20:04.175Z,94988.42
2019-04-06T02:22:35.319Z,94982.62
2019-04-06T02:25:07.576Z,94979.56
2019-04-06T02:27:38.319Z,94981.17
2019-04-06T02:30:31.064Z,94974.48
2019-04-06T02:33:23.422Z,94979.45
2019-04-06T02:36:10.113Z,94980.77
2019-04-06T02:38:59.759Z,94982.09
2019-04-06T02:41:49.171Z,94980.57
2019-04-06T02:44:19.933Z,94980.33
2019-04-06T02:46:50.846Z,94980.29
2019-04-06T02:49:21.660Z,94977.56
2019-04-06T02:51:52.847Z,94981.25
2019-04-06T02:54:24.260Z,94982.30
2019-04-06T02:56:55.583Z,94986.82
2019-04-06T02:59:26.929Z,94984.45
2019-04-06T03:01:58.659Z,94982.33
2019-04-06T03:04:33.458Z,94985.02
2019-04-06T03:07:04.866Z,94982.98
2019-04-06T03:09:45.799Z,94982.56
2019-04-06T03:12:19.388Z,94979.40
2019-04-06T03:14:51.495Z,94974.00
2019-04-06T03:17:25.195Z,94970.31
2019-04-06T03:19:57.147Z,94978.69
2019-04-06T03:22:29.210Z,94975.20
2019-04-06T03:25:00.432Z,94976.28
2019-04-06T03:27:31.845Z,94984.98
2019-04-06T03:30:03.463Z,94983.86
2019-04-06T03:32:35.216Z,94980.38
2019-04-06T03:35:06.789Z,94983.29
2019-04-06T03:37:38.528Z,94977.80
2019-04-06T03:40:09.977Z,94977.05
2019-04-06T03:42:46.066Z,94981.57
2019-04-06T03:45:17.486Z,94989.47
2019-04-06T03:47:49.550Z,94988.58
2019-04-06T03:50:23.642Z,94996.72
2019-04-06T03:53:01.427Z,94993.46
2019-04-06T03:55:32.833Z,94999.83
2019-04-06T03:58:05.716Z,94996.67
2019-04-06T04:00:39.799Z,95005.31
2019-04-06T04:03:11.505Z,95004.91
2019-04-06T04:05:42.802Z,95013.07
2019-04-06T04:08:15.377Z,95002.30
2019-04-06T04:10:47.848Z,95003.63
2019-04-06T04:13:20.167Z,95000.89
2019-04-06T04:15:51.638Z,94995.08
2019-04-06T04:18:22.792Z,94996.69
2019-04-06T04:20:55.174Z,94992.44
2019-04-06T04:23:26.360Z,94997.30
2019-04-06T04:25:58.092Z,94994.27
2019-04-06T04:28:29.752Z,94997.58
2019-04-06T04:31:01.398Z,95000.37
2019-04-06T04:33:32.672Z,94997.81
2019-04-06T04:36:03.788Z,95002.22
2019-04-06T04:38:37.074Z,95001.87
2019-04-06T04:41:08.330Z,95000.50
2019-04-06T04:43:40.052Z,95004.47
2019-04-06T04:46:11.086Z,95003.81
2019-04-06T04:48:42.230Z,95006.45
2019-04-06T04:51:14.691Z,95010.69
2019-04-06T04:53:46.965Z,95009.37
2019-04-06T04:56:18.305Z,95011.69
2019-04-06T04:58:49.448Z,95006.97
2019-04-06T05:01:22.002Z,95016.52
2019-04-06T05:03:54.133Z,95017.36
2019-04-06T05:06:25.718Z,95017.59
2019-04-06T05:08:57.199Z,95020.75
2019-04-06T05:11:28.721Z,95020.28
2019-04-06T05:14:35.230Z,95013.44
2019-04-06T05:17:06.601Z,95015.38
2019-04-06T05:19:38.160Z,95019.91
2019-04-06T05:22:09.506Z,95023.83
2019-04-06T05:24:42.005Z,95021.27
2019-04-06T05:27:13.577Z,95027.70
2019-04-06T05:29:44.830Z,95020.94
2019-04-06T05:32:16.183Z,95024.20
2019-04-06T05:34:47.566Z,95026.42
2019-04-06T05:37:18.875Z,95026.13
2019-04-06T05:39:50.599Z,95023.48
2019-04-06T05:42:21.790Z,95017.05
2019-04-06T05:44:55.085Z,95015.08
2019-04-06T05:47:27.633Z,95017.60
2019-04-06T05:49:59.271Z,95017.72
2019-04-06T05:52:30.925Z,95023.69
2019-04-06T05:55:04.991Z,95019.30
2019-04-06T05:57:37.259Z,95020.75
2019-04-06T06:00:17.504Z,95017.98
2019-04-06T06:03:41.680Z,95025.03
2019-04-06T06:06:48.777Z,95024.14
2019-04-06T06:09:26.138Z,95030.91
2019-04-06T06:12:12.439Z,95030.78
2019-04-06T06:14:50.116Z,95029.83
2019-04-06T06:17:24.659Z,95035.48
2019-04-06T06:19:55.396Z,95034.80
2019-04-06T06:22:27.014Z,95027.44
2019-04-06T06:24:58.854Z,95031.20
2019-04-06T06:27:29.831Z,95027.52
2019-04-06T06:30:04.753Z,95034.19
2019-04-06T06:32:35.488Z,95033.92
2019-04-06T06:35:06.577Z,95037.66
2019-04-06T06:37:37.721Z,95028.84
2019-04-06T06:40:09.188Z,95027.20
2019-04-06T06:42:39.958Z,95033.81
2019-04-06T06:45:10.635Z,95025.77
2019-04-06T06:47:41.467Z,95021.38
2019-04-06T06:50:15.071Z,95022.91
2019-04-06T06:52:46.451Z,95028.12
2019-04-06T06:55:20.215Z,95011.18
2019-04-06T06:57:52.616Z,95011.04
2019-04-06T07:00:23.361Z,95015.16
2019-04-06T07:02:54.031Z,95011.48
2019-04-06T07:05:25.719Z,95014.59
2019-04-06T07:07:59.251Z,95020.03
2019-04-06T07:10:29.883Z,95020.35
2019-04-06T07:13:00.734Z,95019.60
2019-04-06T07:15:34.422Z,95016.77
2019-04-06T07:18:06.182Z,95015.48
2019-04-06T07:20:36.959Z,95015.63
2019-04-06T07:23:07.760Z,95010.88
2019-04-06T07:25:38.937Z,95018.09
2019-04-06T07:28:10.260Z,95019.96
2019-04-06T07:30:41.201Z,95014.95
2019-04-06T07:33:12.176Z,95013.14
2019-04-06T07:35:43.029Z,95016.66
2019-04-06T07:38:17.768Z,95014.57
2019-04-06T07:40:49.079Z,95015.70
2019-04-06T07:43:20.424Z,95017.28
2019-04-06T07:45:51.338Z,95017.73
2019-04-06T07:48:22.119Z,95019.13
2019-04-06T07:50:54.163Z,95023.88
2019-04-06T07:53:25.133Z,95021.04
2019-04-06T07:55:57.123Z,95015.20
2019-04-06T07:58:29.311Z,95019.18
2019-04-06T08:01:00.386Z,95017.05
2019-04-06T08:03:33.606Z,95021.34
2019-04-06T08:06:07.451Z,95011.73
2019-04-06T08:08:38.362Z,95012.20
2019-04-06T08:11:18.045Z,95015.50
2019-04-06T08:13:49.494Z,95010.94
2019-04-06T08:16:20.374Z,95013.98
2019-04-06T08:18:51.051Z,95012.09
2019-04-06T08:21:22.037Z,95012.97
2019-04-06T08:23:55.903Z,95009.44
2019-04-06T08:26:26.578Z,95010.17
2019-04-06T08:29:01.398Z,95008.98
2019-04-06T08:31:29.779Z,95010.71
2019-04-06T08:34:06.354Z,95004.85
2019-04-06T08:36:39.273Z,95006.78
2019-04-06T08:39:12.916Z,95005.62
2019-04-06T08:41:43.609Z,95009.18
2019-04-06T08:44:18.502Z,95008.47
2019-04-06T08:46:49.177Z,95007.19
2019-04-06T08:49:22.387Z,95009.28
2019-04-06T08:52:07.871Z,95007.56
2019-04-06T08:54:38.658Z,95007.84
2019-04-06T08:57:16.430Z,95007.30
2019-04-06T08:59:47.101Z,95007.81
2019-04-06T09:02:18.808Z,95006.53
2019-04-06T09:04:54.091Z,94997.98
2019-04-06T09:07:25.126Z,94999.38
2019-04-06T09:09:55.844Z,95002.09
2019-04-06T09:12:29.072Z,95000.19
2019-04-06T09:15:00.132Z,95000.91
2019-04-06T09:17:30.950Z,94992.48
2019-04-06T09:20:14.624Z,94995.84
2019-04-06T09:22:42.939Z,94991.18
2019-04-06T09:25:18.115Z,94992.63
2019-04-06T09:27:53.371Z,94983.89
2019-04-06T09:30:43.461Z,94972.17
2019-04-06T09:33:18.105Z,94976.44
2019-04-06T09:35:49.018Z,94970.48
2019-04-06T09:38:32.275Z,94968.85
2019-04-06T09:41:15.179Z,94965.70
2019-04-06T09:43:49.301Z,94967.91
2019-04-06T09:46:41.609Z,94967.70
2019-04-06T09:49:40.981Z,94971.08
2019-04-06T09:52:30.516Z,94968.88
2019-04-06T09:55:23.338Z,94960.91
2019-04-06T09:58:27.750Z,94956.41
2019-04-06T10:01:06.046Z,94957.77
2019-04-06T10:03:52.353Z,94951.25
2019-04-06T10:06:46.643Z,94961.84
2019-04-06T10:09:42.283Z,94953.83
2019-04-06T10:12:40.116Z,94954.42
2019-04-06T10:15:36.128Z,94957.09
2019-04-06T10:18:28.431Z,94955.02
2019-04-06T10:21:23.839Z,94958.11
2019-04-06T10:24:20.061Z,94959.14
2019-04-06T10:27:14.412Z,94956.33
2019-04-06T10:30:07.891Z,94949.55
2019-04-06T10:33:05.562Z,94949.23
2019-04-06T10:35:58.275Z,94948.30
2019-04-06T10:39:08.052Z,94949.19
2019-04-06T10:42:00.094Z,94947.29
2019-04-06T10:44:54.352Z,94946.83
2019-04-06T10:47:39.040Z,94945.83
2019-04-06T10:51:03.331Z,94945.44
2019-04-06T10:53:48.575Z,94941.91
2019-04-06T10:56:46.964Z,94940.73
2019-04-06T10:59:59.862Z,94949.08
2019-04-06T11:02:39.279Z,94945.92
2019-04-06T11:05:35.512Z,94936.22
2019-04-06T11:08:23.555Z,94940.66
2019-04-06T11:11:08.087Z,94943.98
2019-04-06T11:14:09.770Z,94926.61
2019-04-06T11:20:44.271Z,94925.05
2019-04-06T11:23:34.314Z,94920.36
2019-04-06T11:26:39.370Z,94917.53
2019-04-06T11:29:35.745Z,94911.30
2019-04-06T11:32:33.207Z,94905.02
2019-04-06T11:35:29.216Z,94909.39
2019-04-06T11:38:36.142Z,94906.38
2019-04-06T11:41:25.869Z,94899.10
2019-04-06T11:44:08.969Z,94898.62
2019-04-06T11:46:58.748Z,94897.25
2019-04-06T11:50:01.132Z,94899.63
2019-04-06T11:53:05.434Z,94892.69
2019-04-06T11:56:00.624Z,94895.76
2019-04-06T11:58:44.749Z,94893.02
2019-04-06T12:01:50.872Z,94902.53
2019-04-06T12:04:43.062Z,94891.42
2019-04-06T12:07:30.594Z,94900.81
2019-04-06T12:10:27.380Z,94892.83
2019-04-06T12:13:23.319Z,94885.96
2019-04-06T12:16:07.349Z,94887.67
2019-04-06T12:18:47.407Z,94877.77
2019-04-06T12:21:44.334Z,94874.55
2019-04-06T12:24:33.736Z,94878.28
2019-04-06T12:27:15.209Z,94875.25
2019-04-06T12:30:13.118Z,94877.11
2019-04-06T12:33:33.871Z,94872.25
2019-04-06T12:36:18.744Z,94876.98
2019-04-06T12:39:06.680Z,94872.00
2019-04-06T12:42:06.703Z,94866.56
2019-04-06T12:44:55.122Z,94872.35
2019-04-06T12:47:45.051Z,94865.13
2019-04-06T12:50:27.868Z,94859.88
2019-04-06T12:53:23.967Z,94863.70
2019-04-06T12:56:28.603Z,94853.33
2019-04-06T12:59:48.149Z,94857.35
2019-04-06T13:02:28.998Z,94855.72
2019-04-06T13:05:17.081Z,94852.67
2019-04-06T13:08:06.969Z,94848.39
2019-04-06T13:10:55.733Z,94839.29
2019-04-06T13:13:44.329Z,94851.52
2019-04-06T13:16:36.214Z,94852.69
2019-04-06T13:19:37.131Z,94854.02
2019-04-06T13:22:33.881Z,94851.88
2019-04-06T13:25:17.678Z,94849.96
2019-04-06T13:28:22.481Z,94849.51
2019-04-06T13:31:19.789Z,94846.38
2019-04-06T13:34:14.600Z,94840.98
2019-04-06T13:37:08.632Z,94842.75
2019-04-06T13:39:52.114Z,94838.47
2019-04-06T13:42:52.972Z,94833.58
2019-04-06T13:45:45.286Z,94826.91
2019-04-06T13:48:37.733Z,94819.84
2019-04-06T13:51:30.851Z,94821.98
2019-04-06T13:54:30.138Z,94814.50
2019-04-06T13:57:12.426Z,94819.72
2019-04-06T14:00:12.558Z,94823.56
2019-04-06T14:03:08.507Z,94821.04
2019-04-06T14:05:57.021Z,94824.05
2019-04-06T14:08:48.162Z,94827.94
2019-04-06T14:11:39.915Z,94821.17
2019-04-06T14:14:32.185Z,94817.91
2019-04-06T14:17:31.648Z,94813.70
2019-04-06T14:20:21.432Z,94805.40
2019-04-06T14:23:14.213Z,94805.83
2019-04-06T14:26:13.486Z,94813.34
2019-04-06T14:29:03.172Z,94818.92
2019-04-06T14:31:51.800Z,94812.99
2019-04-06T14:34:56.065Z,94813.97
2019-04-06T14:37:41.338Z,94820.08
2019-04-06T14:40:43.830Z,94814.99
2019-04-06T14:43:39.390Z,94819.94
2019-04-06T14:46:24.724Z,94808.84
2019-04-06T14:49:28.945Z,94809.95
2019-04-06T14:52:08.616Z,94801.99
2019-04-06T14:54:54.983Z,94809.73
2019-04-06T14:57:35.328Z,94817.63
2019-04-06T15:00:38.752Z,94817.34
2019-04-06T15:03:31.299Z,94814.16
2019-04-06T15:06:21.846Z,94806.73
2019-04-06T15:09:17.471Z,94812.97
2019-04-06T15:12:07.019Z,94815.66
2019-04-06T15:15:00.743Z,94813.08
2019-04-06T15:18:01.575Z,94818.83
2019-04-06T15:21:00.620Z,94824.88
2019-04-06T15:23:50.426Z,94823.52
2019-04-06T15:26:36.255Z,94823.53
2019-04-06T15:29:24.062Z,94827.19
2019-04-06T15:32:06.812Z,94826.84
2019-04-06T15:35:03.336Z,94825.72
2019-04-06T15:38:01.517Z,94823.42
2019-04-06T15:40:55.815Z,94835.36
2019-04-06T15:43:48.851Z,94834.51
2019-04-06T15:46:38.695Z,94835.48
2019-04-06T15:49:45.035Z,94837.02
2019-04-06T15:52:34.241Z,94837.39
2019-04-06T15:55:34.692Z,94835.95
2019-04-06T15:58:22.847Z,94842.23
2019-04-06T16:01:16.165Z,94835.20
2019-04-06T16:04:08.422Z,94840.10
2019-04-06T16:06:48.966Z,94848.13
2019-04-06T16:09:38.972Z,94843.73
2019-04-06T16:12:23.839Z,94840.69
2019-04-06T16:15:16.868Z,94847.50
2019-04-06T16:18:22.090Z,94845.06
2019-04-06T16:21:14.484Z,94847.99
2019-04-06T16:24:16.003Z,94848.05
2019-04-06T16:26:56.857Z,94846.50
2019-04-06T16:30:08.447Z,94848.41
2019-04-06T16:32:58.490Z,94853.16
2019-04-06T16:35:50.419Z,94859.84
2019-04-06T16:38:46.573Z,94861.63
2019-04-06T16:41:37.917Z,94867.38
2019-04-06T16:44:30.726Z,94860.72
2019-04-06T16:47:36.326Z,94858.98
2019-04-06T16:50:35.308Z,94857.91
2019-04-06T16:53:33.086Z,94861.13
2019-04-06T16:56:23.121Z,94864.43
2019-04-06T16:59:03.510Z,94860.94
2019-04-06T17:01:59.619Z,94861.14
2019-04-06T17:05:01.680Z,94863.20
2019-04-06T17:08:08.789Z,94861.30
2019-04-06T17:10:53.034Z,94869.34
2019-04-06T17:13:54.430Z,94873.47
2019-04-06T17:17:11.913Z,94874.66
2019-04-06T17:20:06.788Z,94879.09
2019-04-06T17:22:56.382Z,94876.48
2019-04-06T17:25:46.350Z,94879.45
2019-04-06T17:28:35.955Z,94881.85
2019-04-06T17:31:21.877Z,94875.70
2019-04-06T17:34:21.148Z,94882.84
2019-04-06T17:37:15.525Z,94881.99
2019-04-06T17:40:22.232Z,94884.47
2019-04-06T17:43:53.180Z,94882.78
2019-04-06T17:46:58.444Z,94882.00
2019-04-06T17:49:58.703Z,94889.05
2019-04-06T17:52:49.391Z,94892.75
2019-04-06T17:55:38.651Z,94890.42
2019-04-06T18:02:01.117Z,94895.08
2019-04-06T18:05:02.160Z,94885.84
2019-04-06T18:08:01.308Z,94891.02
2019-04-06T18:11:05.369Z,94884.04
2019-04-06T18:14:01.265Z,94891.02
2019-04-06T18:16:38.899Z,94896.38
2019-04-06T18:19:10.230Z,94907.48
2019-04-06T18:21:41.043Z,94906.92
2019-04-06T18:24:18.005Z,94915.45
2019-04-06T18:26:48.924Z,94917.02
2019-04-06T18:29:28.380Z,94913.75
2019-04-06T18:32:20.692Z,94921.96
2019-04-06T18:34:59.298Z,94923.94
2019-04-06T18:37:43.785Z,94925.48
2019-04-06T18:43:16.983Z,94926.86
2019-04-06T18:45:48.179Z,94927.81
2019-04-06T18:48:20.989Z,94923.70
2019-04-06T18:50:57.732Z,94924.97
2019-04-06T18:53:28.622Z,94928.38
2019-04-06T18:55:59.553Z,94935.22
2019-04-06T18:58:35.526Z,94943.39
2019-04-06T19:01:07.436Z,94937.17
2019-04-06T19:03:41.325Z,94935.47
2019-04-06T19:06:16.743Z,94932.19
2019-04-06T19:08:49.005Z,94933.34
2019-04-06T19:11:26.531Z,94932.58
2019-04-06T19:14:03.077Z,94941.38
2019-04-06T19:16:35.527Z,94941.19
2019-04-06T19:19:09.254Z,94930.73
2019-04-06T19:22:08.142Z,94931.45
2019-04-06T19:25:07.896Z,94929.83
2019-04-06T19:27:40.644Z,94926.35
2019-04-06T19:30:11.624Z,94923.78
2019-04-06T19:32:44.848Z,94923.09
2019-04-06T19:35:20.011Z,94923.64
2019-04-06T19:37:50.808Z,94918.25
2019-04-06T19:40:22.631Z,94921.76
2019-04-06T19:42:53.794Z,94914.55
2019-04-06T19:45:24.935Z,94914.27
2019-04-06T19:47:56.721Z,94921.25
2019-04-06T19:50:27.687Z,94917.27
2019-04-06T19:53:02.334Z,94915.20
2019-04-06T19:55:33.486Z,94914.91
2019-04-06T19:58:07.253Z,94921.64
2019-04-06T20:00:38.408Z,94922.36
2019-04-06T20:03:16.703Z,94922.05
2019-04-06T20:05:50.712Z,94919.66
2019-04-06T20:08:29.911Z,94915.10
2019-04-06T20:11:01.067Z,94926.20
2019-04-06T20:13:32.467Z,94919.89
2019-04-06T20:16:06.196Z,94921.62
2019-04-06T20:18:37.829Z,94920.66
2019-04-06T20:21:13.468Z,94915.13
2019-04-06T20:23:55.234Z,94921.46
2019-04-06T20:26:32.439Z,94914.83
2019-04-06T20:29:08.388Z,94908.81
2019-04-06T20:31:44.585Z,94917.49
2019-04-06T20:34:20.756Z,94913.94
2019-04-06T20:37:02.898Z,94923.38
2019-04-06T20:39:36.034Z,94915.75
2019-04-06T20:42:06.998Z,94917.73
2019-04-06T20:44:41.083Z,94913.02
2019-04-06T20:47:15.962Z,94911.53
2019-04-06T20:49:50.781Z,94907.59
2019-04-06T20:52:26.336Z,94909.50
2019-04-06T20:55:19.913Z,94918.38
2019-04-06T20:58:13.862Z,94920.30
2019-04-06T21:00:52.383Z,94916.66
2019-04-06T21:03:25.495Z,94915.69
2019-04-06T21:06:11.235Z,94917.59
2019-04-06T21:08:44.254Z,94918.95
2019-04-06T21:11:20.447Z,94919.27
2019-04-06T21:13:58.295Z,94920.59
2019-04-06T21:16:32.398Z,94924.36
2019-04-06T21:19:05.442Z,94918.50
2019-04-06T21:21:39.446Z,94925.17
2019-04-06T21:24:12.499Z,94925.23
2019-04-06T21:26:46.851Z,94924.17
2019-04-06T21:29:31.079Z,94921.83
2019-04-06T21:32:03.489Z,94919.44
2019-04-06T21:34:34.965Z,94917.30
2019-04-06T21:37:07.590Z,94914.42
2019-04-06T21:39:39.185Z,94909.37
2019-04-06T21:42:10.499Z,94908.08
2019-04-06T21:44:44.224Z,94901.17
2019-04-06T21:47:14.886Z,94907.56
2019-04-06T21:49:55.550Z,94904.40
2019-04-06T21:52:30.900Z,94901.47
2019-04-06T21:55:03.715Z,94906.00
2019-04-06T21:57:36.502Z,94906.55
2019-04-06T22:00:12.208Z,94910.04
2019-04-06T22:02:48.870Z,94902.59
2019-04-06T22:05:20.135Z,94909.55
2019-04-06T22:08:12.214Z,94906.59
2019-04-06T22:11:00.551Z,94915.41
2019-04-06T22:13:36.560Z,94907.96
2019-04-06T22:16:08.775Z,94907.70
2019-04-06T22:18:39.724Z,94911.16
2019-04-06T22:21:10.475Z,94906.67
2019-04-06T22:23:44.377Z,94915.72
2019-04-06T22:26:19.376Z,94906.13
2019-04-06T22:28:57.015Z,94905.34
2019-04-06T22:31:29.031Z,94911.75
2019-04-06T22:34:06.128Z,94912.28
2019-04-06T22:36:42.611Z,94901.08
2019-04-06T22:39:13.855Z,94900.27
2019-04-06T22:41:48.031Z,94894.07
2019-04-06T22:44:21.001Z,94888.70
2019-04-06T22:46:56.773Z,94892.20
2019-04-06T22:49:28.361Z,94897.80
2019-04-06T22:52:02.277Z,94889.02
2019-04-06T22:54:34.749Z,94889.05
2019-04-06T22:57:06.373Z,94889.55
2019-04-06T22:59:43.121Z,94890.83
2019-04-06T23:02:15.836Z,94895.09
2019-04-06T23:04:56.017Z,94900.42
2019-04-06T23:07:30.398Z,94895.13
2019-04-06T23:10:02.241Z,94892.52
2019-04-06T23:12:34.279Z,94890.16
2019-04-06T23:15:06.065Z,94893.40
2019-04-06T23:17:36.926Z,94897.69
2019-04-06T23:20:08.412Z,94903.33
2019-04-06T23:22:39.262Z,94908.65
2019-04-06T23:25:10.630Z,94912.38
2019-04-06T23:27:44.334Z,94912.37
2019-04-06T23:30:15.780Z,94910.53
2019-04-06T23:32:48.995Z,94913.21
2019-04-06T23:35:22.044Z,94909.48
2019-04-06T23:37:53.009Z,94904.96
2019-04-06T23:40:23.731Z,94909.22
2019-04-06T23:42:55.258Z,94916.40
2019-04-06T23:45:30.078Z,94912.97
2019-04-06T23:48:02.807Z,94916.16
2019-04-06T23:50:35.900Z,94911.64
2019-04-06T23:53:09.709Z,94915.11
2019-04-06T23:55:42.208Z,94913.78
2019-04-06T23:58:15.747Z,94911.65
